createdAt,value
2023-05-07T00:02:05.071Z,23.13
2023-05-07T00:04:37.888Z,21.70
2023-05-07T00:07:07.051Z,22.53
2023-05-07T00:09:37.470Z,21.13
2023-05-07T00:12:06.548Z,25.17
2023-05-07T00:14:35.459Z,21.50
2023-05-07T00:17:04.480Z,20.63
2023-05-07T00:19:33.370Z,24.43
2023-05-07T00:22:02.418Z,22.40
2023-05-07T00:24:31.389Z,22.53
2023-05-07T00:27:01.736Z,24.27
2023-05-07T00:29:30.715Z,22.67
2023-05-07T00:31:59.691Z,21.27
2023-05-07T00:34:28.662Z,22.47
2023-05-07T00:36:57.798Z,21.50
2023-05-07T00:39:26.835Z,22.43
2023-05-07T00:41:55.920Z,20.77
2023-05-07T00:44:26.479Z,21.80
2023-05-07T00:46:56.115Z,21.40
2023-05-07T00:49:26.656Z,20.20
2023-05-07T00:51:55.915Z,22.00
2023-05-07T00:54:24.992Z,18.47
2023-05-07T00:56:54.308Z,18.27
2023-05-07T00:59:23.262Z,18.00
2023-05-07T01:01:54.781Z,17.53
2023-05-07T01:04:23.675Z,18.70
2023-05-07T01:06:54.471Z,17.80
2023-05-07T01:09:24.332Z,21.53
2023-05-07T01:11:53.974Z,18.23
2023-05-07T01:14:23.562Z,22.17
2023-05-07T01:16:54.586Z,19.47
2023-05-07T01:19:25.718Z,19.37
2023-05-07T01:22:02.010Z,17.80
2023-05-07T01:24:34.289Z,18.73
2023-05-07T01:27:03.811Z,18.47
2023-05-07T01:29:34.962Z,18.73
2023-05-07T01:32:05.327Z,19.80
2023-05-07T01:34:38.599Z,17.50
2023-05-07T01:37:07.913Z,19.13
2023-05-07T01:39:40.504Z,18.37
2023-05-07T01:42:09.725Z,17.13
2023-05-07T01:44:38.961Z,17.30
2023-05-07T01:47:08.720Z,16.47
2023-05-07T01:49:38.295Z,21.10
2023-05-07T01:52:07.379Z,16.03
2023-05-07T01:54:37.757Z,13.67
2023-05-07T01:57:07.078Z,14.20
2023-05-07T01:59:36.392Z,16.37
2023-05-07T02:02:05.741Z,16.10
2023-05-07T02:04:35.540Z,18.37
2023-05-07T02:07:23.018Z,21.40
2023-05-07T02:09:53.958Z,21.33
2023-05-07T02:12:22.804Z,22.63
2023-05-07T02:14:52.059Z,24.93
2023-05-07T02:17:21.023Z,26.53
2023-05-07T02:19:49.899Z,26.20
2023-05-07T02:22:18.889Z,30.60
2023-05-07T02:24:47.833Z,30.33
2023-05-07T02:27:18.310Z,29.03
2023-05-07T02:29:47.782Z,27.70
2023-05-07T02:32:16.811Z,27.33
2023-05-07T02:34:45.759Z,25.87
2023-05-07T02:37:14.854Z,25.67
2023-05-07T02:39:43.780Z,24.27
2023-05-07T02:42:12.630Z,29.30
2023-05-07T02:44:42.864Z,26.03
2023-05-07T02:47:14.305Z,30.53
2023-05-07T02:49:44.475Z,28.40
2023-05-07T02:52:13.539Z,31.83
2023-05-07T02:54:42.676Z,24.73
2023-05-07T02:57:11.524Z,26.33
2023-05-07T02:59:42.005Z,28.87
2023-05-07T03:02:11.391Z,28.47
2023-05-07T03:04:41.347Z,27.70
2023-05-07T03:07:10.359Z,26.07
2023-05-07T03:09:39.199Z,25.07
2023-05-07T03:12:09.294Z,26.30
2023-05-07T03:14:38.338Z,25.90
2023-05-07T03:17:10.249Z,24.50
2023-05-07T03:19:39.543Z,26.83
2023-05-07T03:22:08.392Z,27.13
2023-05-07T03:24:37.315Z,28.87
2023-05-07T03:27:06.603Z,25.27
2023-05-07T03:29:35.497Z,26.40
2023-05-07T03:32:04.449Z,25.37
2023-05-07T03:34:35.696Z,32.10
2023-05-07T03:37:04.933Z,25.57
2023-05-07T03:39:34.257Z,30.43
2023-05-07T03:42:03.766Z,33.20
2023-05-07T03:44:34.362Z,29.57
2023-05-07T03:47:03.408Z,24.70
2023-05-07T03:49:32.467Z,25.37
2023-05-07T03:52:03.624Z,30.00
2023-05-07T03:54:33.801Z,27.97
2023-05-07T03:57:03.450Z,35.80
2023-05-07T03:59:32.265Z,29.70
2023-05-07T04:02:03.597Z,31.13
2023-05-07T04:04:34.610Z,26.60
2023-05-07T04:07:05.687Z,26.03
2023-05-07T04:09:40.865Z,28.00
2023-05-07T04:12:09.977Z,26.17
2023-05-07T04:14:39.108Z,29.77
2023-05-07T04:17:08.385Z,25.57
2023-05-07T04:19:37.362Z,27.13
2023-05-07T04:22:07.669Z,25.90
2023-05-07T04:24:36.781Z,25.63
2023-05-07T04:27:07.593Z,26.57
2023-05-07T04:29:36.779Z,25.53
2023-05-07T04:32:05.998Z,26.93
2023-05-07T04:34:34.999Z,28.07
2023-05-07T04:37:07.728Z,29.67
2023-05-07T04:39:36.738Z,26.87
2023-05-07T04:42:06.690Z,27.73
2023-05-07T04:44:36.442Z,30.97
2023-05-07T04:47:05.415Z,28.23
2023-05-07T04:49:34.252Z,26.83
2023-05-07T04:52:04.639Z,26.97
2023-05-07T04:54:36.444Z,27.60
2023-05-07T04:57:06.767Z,30.33
2023-05-07T04:59:36.563Z,26.17
2023-05-07T05:02:05.988Z,28.27
2023-05-07T05:04:35.161Z,27.73
2023-05-07T05:07:05.882Z,26.80
2023-05-07T05:09:36.389Z,25.83
2023-05-07T05:12:08.466Z,26.13
2023-05-07T05:14:38.912Z,27.63
2023-05-07T05:17:09.535Z,27.40
2023-05-07T05:19:39.453Z,25.37
2023-05-07T05:22:08.393Z,28.60
2023-05-07T05:24:39.270Z,27.93
2023-05-07T05:27:08.440Z,25.80
2023-05-07T05:29:37.510Z,26.93
2023-05-07T05:32:06.526Z,25.27
2023-05-07T05:34:35.772Z,26.60
2023-05-07T05:37:05.802Z,25.63
2023-05-07T05:39:34.882Z,24.60
2023-05-07T05:42:05.875Z,28.27
2023-05-07T05:44:37.548Z,27.83
2023-05-07T05:47:07.822Z,28.30
2023-05-07T05:49:37.584Z,26.53
2023-05-07T05:52:09.838Z,26.13
2023-05-07T05:54:40.257Z,25.37
2023-05-07T05:57:11.069Z,26.57
2023-05-07T05:59:40.278Z,26.67
2023-05-07T06:02:09.739Z,27.17
2023-05-07T06:04:39.041Z,25.87
2023-05-07T06:07:08.453Z,27.37
2023-05-07T06:09:37.436Z,27.13
2023-05-07T06:12:06.545Z,36.80
2023-05-07T06:14:37.452Z,32.87
2023-05-07T06:17:08.555Z,33.23
2023-05-07T06:19:42.031Z,34.93
2023-05-07T06:22:13.473Z,29.27
2023-05-07T06:24:44.182Z,38.27
2023-05-07T06:27:13.468Z,34.63
2023-05-07T06:29:54.350Z,27.73
2023-05-07T06:32:24.345Z,24.47
2023-05-07T06:34:55.014Z,28.27
2023-05-07T06:37:24.063Z,29.60
2023-05-07T06:39:59.279Z,28.33
2023-05-07T06:42:29.199Z,24.40
2023-05-07T06:45:04.030Z,32.33
2023-05-07T06:47:37.726Z,28.07
2023-05-07T06:50:07.640Z,30.70
2023-05-07T06:52:38.054Z,26.80
2023-05-07T06:55:10.319Z,30.47
2023-05-07T06:57:41.027Z,32.53
2023-05-07T07:00:13.752Z,35.07
2023-05-07T07:02:49.910Z,30.57
2023-05-07T07:05:21.923Z,25.57
2023-05-07T07:07:55.001Z,26.70
2023-05-07T07:10:24.705Z,26.57
2023-05-07T07:12:55.348Z,24.70
2023-05-07T07:15:27.175Z,28.17
2023-05-07T07:17:57.811Z,29.90
2023-05-07T07:20:27.759Z,24.60
2023-05-07T07:22:57.794Z,26.33
2023-05-07T07:25:26.824Z,26.27
2023-05-07T07:27:56.302Z,25.03
2023-05-07T07:30:29.213Z,25.53
2023-05-07T07:33:10.581Z,24.00
2023-05-07T07:35:49.109Z,24.93
2023-05-07T07:38:20.027Z,22.37
2023-05-07T07:40:55.087Z,23.37
2023-05-07T07:43:26.425Z,26.10
2023-05-07T07:45:58.673Z,25.87
2023-05-07T07:48:28.485Z,21.07
2023-05-07T07:50:58.369Z,21.23
2023-05-07T07:53:30.022Z,24.60
2023-05-07T07:55:59.819Z,27.20
2023-05-07T07:58:32.873Z,24.67
2023-05-07T08:01:04.294Z,31.80
2023-05-07T08:03:34.227Z,27.17
2023-05-07T08:06:21.836Z,24.10
2023-05-07T08:08:50.979Z,23.07
2023-05-07T08:11:20.101Z,21.20
2023-05-07T08:13:49.836Z,25.43
2023-05-07T08:16:20.978Z,23.87
2023-05-07T08:18:51.348Z,26.50
2023-05-07T08:21:21.420Z,21.27
2023-05-07T08:23:50.449Z,22.40
2023-05-07T08:26:19.627Z,21.27
2023-05-07T08:28:49.611Z,29.87
2023-05-07T08:31:20.199Z,24.57
2023-05-07T08:33:49.763Z,19.83
2023-05-07T08:36:20.463Z,25.10
2023-05-07T08:38:50.719Z,20.60
2023-05-07T08:41:20.121Z,25.70
2023-05-07T08:43:51.056Z,22.57
2023-05-07T08:46:23.400Z,23.80
2023-05-07T08:48:57.295Z,25.90
2023-05-07T08:51:26.882Z,28.87
2023-05-07T08:53:56.715Z,28.43
2023-05-07T08:56:34.890Z,26.13
2023-05-07T08:59:05.030Z,32.03
2023-05-07T09:01:37.145Z,29.57
2023-05-07T09:04:08.287Z,27.77
2023-05-07T09:06:39.244Z,25.90
2023-05-07T09:09:27.668Z,25.43
2023-05-07T09:12:01.291Z,27.67
2023-05-07T09:14:32.586Z,29.95
2023-05-07T09:17:03.972Z,27.43
2023-05-07T09:19:33.416Z,28.70
2023-05-07T09:22:08.482Z,25.20
2023-05-07T09:24:50.745Z,31.93
2023-05-07T09:27:22.700Z,25.33
2023-05-07T09:29:52.507Z,28.33
2023-05-07T09:32:23.273Z,26.40
2023-05-07T09:34:52.283Z,26.00
2023-05-07T09:37:25.111Z,24.77
2023-05-07T09:39:54.241Z,23.10
2023-05-07T09:42:29.092Z,30.70
2023-05-07T09:45:02.593Z,35.17
2023-05-07T09:47:41.747Z,25.27
2023-05-07T09:50:13.067Z,25.40
2023-05-07T09:52:44.839Z,23.60
2023-05-07T09:55:15.380Z,24.03
2023-05-07T09:57:46.149Z,25.83
2023-05-07T10:00:16.897Z,20.23
2023-05-07T10:02:55.048Z,21.60
2023-05-07T10:05:32.249Z,20.03
2023-05-07T10:08:04.780Z,19.33
2023-05-07T10:10:37.703Z,14.93
2023-05-07T10:13:12.080Z,19.90
2023-05-07T10:15:45.531Z,19.13
2023-05-07T10:18:16.761Z,18.47
2023-05-07T10:20:51.069Z,20.77
2023-05-07T10:23:26.534Z,19.00
2023-05-07T10:26:05.667Z,20.23
2023-05-07T10:28:40.181Z,23.07
2023-05-07T10:31:25.866Z,16.50
2023-05-07T10:33:59.685Z,23.23
2023-05-07T10:36:47.874Z,18.27
2023-05-07T10:39:17.674Z,30.13
2023-05-07T10:41:46.866Z,18.63
2023-05-07T10:44:29.105Z,25.10
2023-05-07T10:47:11.685Z,35.53
2023-05-07T10:50:16.104Z,17.77
2023-05-07T10:52:47.030Z,22.73
2023-05-07T10:55:26.579Z,29.33
2023-05-07T10:58:32.364Z,18.40
2023-05-07T11:01:13.978Z,32.40
2023-05-07T11:04:13.831Z,18.57
2023-05-07T11:06:44.235Z,25.33
2023-05-07T11:09:14.829Z,24.77
2023-05-07T11:11:54.436Z,26.60
2023-05-07T11:14:47.093Z,32.13
2023-05-07T11:17:28.495Z,27.47
2023-05-07T11:20:06.907Z,16.97
2023-05-07T11:22:58.464Z,16.33
2023-05-07T11:25:37.910Z,20.37
2023-05-07T11:28:22.305Z,17.80
2023-05-07T11:31:02.145Z,21.70
2023-05-07T11:33:32.652Z,28.13
2023-05-07T11:36:07.508Z,21.97
2023-05-07T11:38:41.115Z,23.57
2023-05-07T11:41:11.762Z,23.87
2023-05-07T11:43:41.327Z,23.57
2023-05-07T11:46:13.312Z,26.93
2023-05-07T11:48:42.905Z,33.63
2023-05-07T11:51:13.350Z,27.83
2023-05-07T11:53:45.973Z,27.70
2023-05-07T11:56:17.647Z,17.37
2023-05-07T11:58:48.523Z,18.80
2023-05-07T12:01:19.558Z,21.30
2023-05-07T12:03:49.214Z,13.47
2023-05-07T12:06:19.457Z,11.67
2023-05-07T12:08:49.596Z,14.57
2023-05-07T12:11:27.902Z,14.40
2023-05-07T12:14:00.127Z,14.17
2023-05-07T12:16:38.333Z,16.37
2023-05-07T12:19:20.822Z,14.63
2023-05-07T12:21:58.918Z,26.73
2023-05-07T12:24:34.771Z,21.37
2023-05-07T12:27:08.080Z,23.43
2023-05-07T12:29:40.526Z,15.37
2023-05-07T12:32:30.771Z,13.70
2023-05-07T12:35:00.268Z,17.93
2023-05-07T12:37:31.884Z,15.07
2023-05-07T12:40:08.770Z,21.10
2023-05-07T12:42:42.262Z,18.30
2023-05-07T12:45:14.023Z,16.50
2023-05-07T12:47:47.348Z,16.70
2023-05-07T12:50:18.004Z,20.50
2023-05-07T12:52:50.100Z,13.93
2023-05-07T12:55:20.007Z,10.63
2023-05-07T12:57:51.694Z,14.80
2023-05-07T13:00:34.439Z,13.87
2023-05-07T13:03:03.657Z,20.60
2023-05-07T13:05:33.201Z,15.90
2023-05-07T13:08:02.173Z,11.80
2023-05-07T13:10:31.468Z,23.33
2023-05-07T13:13:01.897Z,18.33
2023-05-07T13:15:30.994Z,17.53
2023-05-07T13:17:59.992Z,37.90
2023-05-07T13:20:28.991Z,12.63
2023-05-07T13:22:57.936Z,17.63
2023-05-07T13:25:27.471Z,18.67
2023-05-07T13:28:09.574Z,11.77
2023-05-07T13:30:41.859Z,21.03
2023-05-07T13:33:11.329Z,17.17
2023-05-07T13:35:40.556Z,19.73
2023-05-07T13:38:09.483Z,22.83
2023-05-07T13:40:38.759Z,14.63
2023-05-07T13:43:09.136Z,11.40
2023-05-07T13:45:40.160Z,11.83
2023-05-07T13:48:10.330Z,14.77
2023-05-07T13:50:43.751Z,20.07
2023-05-07T13:53:12.879Z,22.50
2023-05-07T13:55:41.907Z,15.57
2023-05-07T13:58:11.101Z,19.63
2023-05-07T14:00:41.996Z,15.70
2023-05-07T14:03:12.339Z,17.97
2023-05-07T14:05:41.998Z,13.90
2023-05-07T14:08:14.400Z,23.67
2023-05-07T14:10:43.797Z,16.97
2023-05-07T14:13:13.038Z,25.23
2023-05-07T14:15:47.602Z,24.80
2023-05-07T14:18:16.784Z,16.77
2023-05-07T14:20:47.695Z,14.23
2023-05-07T14:23:18.656Z,24.13
2023-05-07T14:26:06.542Z,22.27
2023-05-07T14:28:35.442Z,26.13
2023-05-07T14:31:06.152Z,31.00
2023-05-07T14:33:35.245Z,29.67
2023-05-07T14:36:04.722Z,25.77
2023-05-07T14:38:34.289Z,21.40
2023-05-07T14:41:03.275Z,21.50
2023-05-07T14:43:32.186Z,15.57
2023-05-07T14:46:01.209Z,19.83
2023-05-07T14:48:31.665Z,23.60
2023-05-07T14:51:01.182Z,19.50
2023-05-07T14:53:30.078Z,20.43
2023-05-07T14:55:58.974Z,20.80
2023-05-07T14:58:28.068Z,18.47
2023-05-07T15:00:57.175Z,19.07
2023-05-07T15:03:26.089Z,22.07
2023-05-07T15:05:57.968Z,26.77
2023-05-07T15:08:27.690Z,23.30
2023-05-07T15:10:57.369Z,21.60
2023-05-07T15:13:29.100Z,25.93
2023-05-07T15:15:58.878Z,28.60
2023-05-07T15:18:27.888Z,27.77
2023-05-07T15:20:59.455Z,20.97
2023-05-07T15:23:28.423Z,22.73
2023-05-07T15:25:57.355Z,18.27
2023-05-07T15:28:26.822Z,23.60
2023-05-07T15:30:58.683Z,44.53
2023-05-07T15:33:27.949Z,21.20
2023-05-07T15:36:00.223Z,21.03
2023-05-07T15:38:29.213Z,22.60
2023-05-07T15:40:58.290Z,21.10
2023-05-07T15:43:27.250Z,19.57
2023-05-07T15:45:56.352Z,21.90
2023-05-07T15:48:25.208Z,16.97
2023-05-07T15:50:54.285Z,19.47
2023-05-07T15:53:24.680Z,15.17
2023-05-07T15:55:53.814Z,19.00
2023-05-07T15:58:22.779Z,18.60
2023-05-07T16:00:52.341Z,25.30
2023-05-07T16:03:22.689Z,17.83
2023-05-07T16:05:51.746Z,13.70
2023-05-07T16:08:21.458Z,19.57
2023-05-07T16:10:52.149Z,17.53
2023-05-07T16:13:21.628Z,13.23
2023-05-07T16:15:50.653Z,17.67
2023-05-07T16:18:19.542Z,22.63
2023-05-07T16:20:48.844Z,10.23
2023-05-07T16:23:17.840Z,16.83
2023-05-07T16:25:46.757Z,13.80
2023-05-07T16:28:17.469Z,19.07
2023-05-07T16:30:46.572Z,16.33
2023-05-07T16:33:15.572Z,17.03
2023-05-07T16:35:47.789Z,28.57
2023-05-07T16:38:16.898Z,25.00
2023-05-07T16:40:46.004Z,22.13
2023-05-07T16:43:16.567Z,17.33
2023-05-07T16:45:46.659Z,13.43
2023-05-07T16:48:15.689Z,14.80
2023-05-07T16:50:44.948Z,16.30
2023-05-07T16:53:14.502Z,20.57
2023-05-07T16:55:43.597Z,19.60
2023-05-07T16:58:13.344Z,17.23
2023-05-07T17:00:50.550Z,18.30
2023-05-07T17:03:20.592Z,23.50
2023-05-07T17:05:49.676Z,23.90
2023-05-07T17:08:18.554Z,23.53
2023-05-07T17:10:47.592Z,45.33
2023-05-07T17:13:16.664Z,48.97
2023-05-07T17:15:47.929Z,43.17
2023-05-07T17:18:17.086Z,36.90
2023-05-07T17:20:46.072Z,28.33
2023-05-07T17:23:15.677Z,28.27
2023-05-07T17:25:45.814Z,31.30
2023-05-07T17:28:14.846Z,22.33
2023-05-07T17:30:43.939Z,28.93
2023-05-07T17:33:21.342Z,17.40
2023-05-07T17:35:51.410Z,38.10
2023-05-07T17:38:20.305Z,38.23
2023-05-07T17:40:49.260Z,33.37
2023-05-07T17:43:18.396Z,25.50
2023-05-07T17:45:48.546Z,31.53
2023-05-07T17:48:19.263Z,33.90
2023-05-07T17:50:54.728Z,19.50
2023-05-07T17:53:24.901Z,27.07
2023-05-07T17:55:54.745Z,32.13
2023-05-07T17:58:25.841Z,35.90
2023-05-07T18:00:56.201Z,29.73
2023-05-07T18:03:28.178Z,28.60
2023-05-07T18:05:57.516Z,20.57
2023-05-07T18:08:26.514Z,26.40
2023-05-07T18:10:55.555Z,27.33
2023-05-07T18:13:24.608Z,22.33
2023-05-07T18:15:54.468Z,25.57
2023-05-07T18:18:24.214Z,24.40
2023-05-07T18:20:55.295Z,25.27
2023-05-07T18:23:24.204Z,31.00
2023-05-07T18:25:54.232Z,45.47
2023-05-07T18:28:23.232Z,32.20
2023-05-07T18:30:52.179Z,54.80
2023-05-07T18:33:21.167Z,65.80
2023-05-07T18:35:50.224Z,27.30
2023-05-07T18:38:20.664Z,33.43
2023-05-07T18:40:49.499Z,44.50
2023-05-07T18:43:20.986Z,40.70
2023-05-07T18:45:50.927Z,41.57
2023-05-07T18:48:20.090Z,46.50
2023-05-07T18:50:49.835Z,53.60
2023-05-07T18:53:20.515Z,81.17
2023-05-07T18:55:52.055Z,141.50
2023-05-07T18:58:21.926Z,51.90
2023-05-07T19:00:51.728Z,47.03
2023-05-07T19:03:21.084Z,75.77
2023-05-07T19:05:50.063Z,86.67
2023-05-07T19:08:20.422Z,81.57
2023-05-07T19:10:49.375Z,75.90
2023-05-07T19:13:18.326Z,64.87
2023-05-07T19:15:47.532Z,58.67
2023-05-07T19:18:16.621Z,60.40
2023-05-07T19:20:45.813Z,54.00
2023-05-07T19:23:14.737Z,60.43
2023-05-07T19:25:45.317Z,81.17
2023-05-07T19:28:14.354Z,66.87
2023-05-07T19:30:43.552Z,47.53
2023-05-07T19:33:12.657Z,37.03
2023-05-07T19:35:41.979Z,31.80
2023-05-07T19:38:11.005Z,33.90
2023-05-07T19:40:39.861Z,31.53
2023-05-07T19:43:15.875Z,33.23
2023-05-07T19:45:47.432Z,38.73
2023-05-07T19:48:18.997Z,45.43
2023-05-07T19:50:50.047Z,29.20
2023-05-07T19:53:19.075Z,67.20
2023-05-07T19:55:48.303Z,71.53
2023-05-07T19:58:18.972Z,43.93
2023-05-07T20:01:07.138Z,42.87
2023-05-07T20:03:36.735Z,51.83
2023-05-07T20:06:06.540Z,62.43
2023-05-07T20:08:35.478Z,45.00
2023-05-07T20:11:15.007Z,61.90
2023-05-07T20:13:45.780Z,51.27
2023-05-07T20:16:15.064Z,49.60
2023-05-07T20:18:49.986Z,39.43
2023-05-07T20:21:19.152Z,39.30
2023-05-07T20:23:50.137Z,29.40
2023-05-07T20:26:19.952Z,36.17
2023-05-07T20:28:50.400Z,49.17
2023-05-07T20:31:20.790Z,42.07
2023-05-07T20:33:50.000Z,31.47
2023-05-07T20:36:18.824Z,35.10
2023-05-07T20:38:47.800Z,38.53
2023-05-07T20:41:17.964Z,53.97
2023-05-07T20:43:47.054Z,54.67
2023-05-07T20:46:17.450Z,60.60
2023-05-07T20:48:46.675Z,55.40
2023-05-07T20:51:16.144Z,57.73
2023-05-07T20:53:47.472Z,83.77
2023-05-07T20:56:17.534Z,62.90
2023-05-07T20:58:46.828Z,57.60
2023-05-07T21:01:17.130Z,64.77
2023-05-07T21:03:46.115Z,65.90
2023-05-07T21:06:15.040Z,54.60
2023-05-07T21:08:43.998Z,62.23
2023-05-07T21:11:13.334Z,61.63
2023-05-07T21:13:42.412Z,56.00
2023-05-07T21:16:12.612Z,87.40
2023-05-07T21:18:43.543Z,70.37
2023-05-07T21:21:12.780Z,58.60
2023-05-07T21:23:41.670Z,70.37
2023-05-07T21:26:11.201Z,82.30
2023-05-07T21:28:41.098Z,89.83
2023-05-07T21:31:10.049Z,76.93
2023-05-07T21:33:39.011Z,84.43
2023-05-07T21:36:10.188Z,73.43
2023-05-07T21:38:39.628Z,57.03
2023-05-07T21:41:08.543Z,48.10
2023-05-07T21:43:37.569Z,42.00
2023-05-07T21:46:09.981Z,59.77
2023-05-07T21:48:40.003Z,44.50
2023-05-07T21:51:10.884Z,35.20
2023-05-07T21:53:39.847Z,37.77
2023-05-07T21:56:09.113Z,33.00
2023-05-07T21:58:38.172Z,33.00
2023-05-07T22:01:07.727Z,36.73
2023-05-07T22:03:36.893Z,32.77
2023-05-07T22:06:06.272Z,34.50
2023-05-07T22:08:36.915Z,47.03
2023-05-07T22:11:19.303Z,34.60
2023-05-07T22:14:06.731Z,32.83
2023-05-07T22:16:35.871Z,36.13
2023-05-07T22:19:05.113Z,41.33
2023-05-07T22:21:34.052Z,32.60
2023-05-07T22:24:07.165Z,32.03
2023-05-07T22:26:36.235Z,27.70
2023-05-07T22:29:05.130Z,34.03
2023-05-07T22:31:33.983Z,36.73
2023-05-07T22:34:03.074Z,34.97
2023-05-07T22:36:32.218Z,45.33
2023-05-07T22:39:01.656Z,47.30
2023-05-07T22:41:32.157Z,44.73
2023-05-07T22:44:01.191Z,48.63
2023-05-07T22:46:30.253Z,44.07
2023-05-07T22:48:59.381Z,45.83
2023-05-07T22:51:28.560Z,41.30
2023-05-07T22:53:57.860Z,48.50
2023-05-07T22:56:26.706Z,48.20
2023-05-07T22:58:57.061Z,55.67
2023-05-07T23:01:26.678Z,51.33
2023-05-07T23:03:55.609Z,57.50
2023-05-07T23:06:24.439Z,59.50
2023-05-07T23:08:53.488Z,86.00
2023-05-07T23:11:22.526Z,77.17
2023-05-07T23:13:51.548Z,58.60
2023-05-07T23:16:22.019Z,52.73
2023-05-07T23:18:50.959Z,66.70
2023-05-07T23:21:20.504Z,60.83
2023-05-07T23:23:50.027Z,44.33
2023-05-07T23:26:19.001Z,46.13
2023-05-07T23:28:47.927Z,45.40
2023-05-07T23:31:16.962Z,45.37
2023-05-07T23:33:47.392Z,45.60
2023-05-07T23:36:16.339Z,44.80
2023-05-07T23:38:45.140Z,41.73
2023-05-07T23:41:14.728Z,46.27
2023-05-07T23:43:43.661Z,39.30
2023-05-07T23:46:12.559Z,44.63
2023-05-07T23:48:41.460Z,37.33
2023-05-07T23:51:11.957Z,45.80
2023-05-07T23:53:40.882Z,38.13
2023-05-07T23:56:09.816Z,35.10
2023-05-07T23:58:38.693Z,43.57
